Redwood City, CA

8:04 AM PST on December 27, 2014 (GMT -0800)
MorganHomes.com-Hallmark Park Area | Change Station
CLOSE
Current Station
Personal Weather Station
Location: Belmont, CA
Elevation: 760 ft
Nearby Weather Stations

Elev 760 ft 37.52 °N, 122.26 °W | Updated 29 seconds ago

Scattered Clouds
Scattered Clouds
44.3 °F
Feels Like 44 °F
N
1.0
Wind Variable Wind from NNE
Gusts 1.0 mph

Today
High -- | Low -- °F
--% Chance of Precip.
Yesterday
High -- | Low -- °F
Precip. -- in
7:22 AM 4:57 PM
Waxing Crescent, 37% visible
Pressure 30.33 in
Visibility 10.0 miles
Clouds Scattered Clouds 15000 ft
Windchill 44 °F
Dew Point 44 °F
Humidity 100%
Rainfall 0.00 in
Snow Depth Not available.
UV 0 out of 12
Pollen 5.70 out of 12
Air Quality Not available.
Flu Activity Not available.
METAR KSQL 271547Z 00000KT 10SM SCT150 03/00 A3033

More Conditions Fewer Conditions

Pressure 30.33 in
Visibility 10.0 miles
Clouds Scattered Clouds 15000 ft
Windchill 44 °F
Dew Point 44 °F
Humidity 100%
Rainfall 0.00 in
Snow Depth Not available.
UV 0 out of 12
Pollen 5.70 out of 12
Air Quality Not available.
Flu Activity Not available.
METAR KSQL 271547Z 00000KT 10SM SCT150 03/00 A3033

More Conditions Fewer Conditions

10-Day Weather Forecast

Almanac

Astronomy

Dec. 27, 2014 Rise Set
Actual Time
Civil Twilight
Nautical Twilight
Astronomical Twilight
Moon
Length of Visible Light
Length of Day
Tomorrow will be .
, % of the Moon is Illuminated

Today's Extremes

State Highs State Lows

Community

WunderPhotos

Upload Photos

1,780,942 photos uploaded!

WunderBlogs® & News

Nearby

Air Quality

  Air Quality AQ Index Pollutant
Not available.

Snow Depth

Station Depth Elevation

Earthquake Activity

City Distance Mag. Time & Date
Minimum magnitude displayed is 2.5.

Coastal Water Temperatures

Place Temperature

Nearby Weather Stations